Nearby METAR Reports


Data Updates Approximately Every Four Hours

METAR is the international standard code format for hourly surface weather observations which is analogous to the SA coding currently used in the US. The acronym roughly translates from French as Aviation Routine Weather Report. SPECI is merely the code name given to METAR formatted products which are issued on a special non-routine basis as dictated by changing meteorological conditions. The SPECI acronym roughly translates as Aviation Selected Special Weather Report.

KSLH - Cheboygan, Michigan, USA
Distance from station: W 9mi, 14km
Updated: 02/22/2019 7:56pm
Clear
Clear
 Wind from calm
Wind: Calm
Temperature: 19°F , -7°C
Dew Point: 18°F , -8°C
Humidity: 93%
Barometer: 30.39 inHg , 1029.1 hPa
Clouds: Clear
Visibility: 10 miles , 16 km
2019/02/23 00:56 KSLH 230056Z AUTO 00000KT 10SM CLR M07/M08 A3039 RMK AO2 T10661076
KMCD - Mackinac Island, Michigan, USA
Distance from station: NW 19mi, 31km
Updated: 02/22/2019 7:56pm
Clear
Clear
 Wind from SSE
Wind: SSE 8 mph , 13 km/h
Temperature: 27°F , -3°C
Wind Chill: 19°F , -7°C
Dew Point: 21°F , -6°C
Humidity: 80%
Barometer: 30.39 inHg , 1029.1 hPa
Clouds: Clear
Visibility: 10 miles , 16 km
2019/02/23 00:56 KMCD 230056Z AUTO 15007KT 10SM CLR M03/M06 A3039 RMK AO2 T10351063
 
KPLN - Pellston, Michigan, USA
Distance from station: WSW 24mi, 38km
Updated: 02/22/2019 7:54pm
Clear
Clear
 Wind from calm
Wind: Calm
Temperature: 21°F , -6°C
Dew Point: 18°F , -8°C
Humidity: 86%
Barometer: 30.40 inHg , 1029.5 hPa
Clouds: Clear
Visibility: 10 miles , 16 km
2019/02/23 00:54 KPLN 230054Z AUTO 00000KT 10SM CLR M06/M08 A3040 RMK AO2 SLP309 T10611078
KPZQ - Rogers City, Michigan, USA
Distance from station: SE 31mi, 50km
Updated: 02/22/2019 7:55pm
Clear
Clear
 Wind from calm
Wind: Calm
Temperature: 27°F , -3°C
Dew Point: 19°F , -7°C
Humidity: 74%
Barometer: 30.41 inHg , 1029.8 hPa
Clouds: Clear
Visibility: 10 miles , 16 km
2019/02/23 00:55 KPZQ 230055Z AUTO 00000KT 10SM CLR M03/M07 A3041 RMK AO2 T10331068
 
KMGN - Harbor Springs, Michigan, USA
Distance from station: WSW 32mi, 52km
Updated: 02/22/2019 7:55pm
Clear
Clear
 Wind from calm
Wind: Calm
Temperature: 23°F , -5°C
Dew Point: 21°F , -6°C
Humidity: 93%
Barometer: 30.40 inHg , 1029.5 hPa
Clouds: Clear
Visibility: 10 miles , 16 km
2019/02/23 00:55 KMGN 230055Z AUTO 00000KT 10SM CLR M05/M06 A3040 RMK AO2 T10481058
KDRM - Drummond Is, Michigan, USA
Distance from station: NE 36mi, 59km
Updated: 02/22/2019 7:56pm
Clear
Clear
 Wind from calm
Wind: Calm
Temperature: 25°F , -4°C
Dew Point: 19°F , -7°C
Humidity: 80%
Barometer: 30.40 inHg , 1029.5 hPa
Clouds: Clear
Visibility: 10 miles , 16 km
2019/02/23 00:56 KDRM 230056Z AUTO 00000KT 10SM CLR M04/M07 A3040 RMK AO2 T10421068
 
KCIU - Chippewa Intl, Michigan, USA
Distance from station: N 41mi, 66km
Updated: 02/22/2019 7:56pm
Clear
Clear
 Wind from S
Wind: S 3 mph , 6 km/h
Temperature: 25°F , -4°C
Dew Point: 19°F , -7°C
Humidity: 80%
Barometer: 30.39 inHg , 1029.1 hPa
Clouds: Clear
Visibility: 10 miles , 16 km
2019/02/23 00:56 KCIU 230056Z AUTO 17003KT 10SM CLR M04/M07 A3039 RMK AO2 SLP320 T10391067 FZRANO
KGLR - Gaylord, Michigan, USA
Distance from station: SSW 48mi, 77km
Updated: 02/22/2019 7:53pm
Clear
Clear
 Wind from calm
Wind: Calm
Temperature: 25°F , -4°C
Dew Point: 18°F , -8°C
Humidity: 74%
Barometer: 30.36 inHg , 1028.1 hPa
Clouds: Clear
Visibility: 10 miles , 16 km
2019/02/23 00:53 KGLR 230053Z AUTO 00000KT 10SM CLR M04/M08 A3036 RMK AO2 SLP302 T10391078
 
KCVX - Charlevoix, Michigan, USA
Distance from station: WSW 52mi, 83km
Updated: 02/22/2019 7:55pm
Clear
Clear
 Wind from calm
Wind: Calm
Temperature: 23°F , -5°C
Dew Point: 21°F , -6°C
Humidity: 93%
Barometer: 30.43 inHg , 1030.5 hPa
Clouds: Clear
Visibility: 10 miles , 16 km
2019/02/23 00:55 KCVX 230055Z AUTO 00000KT 10SM CLR M05/M06 A3043 RMK AO2 T10461057
KANJ - Sault Ste Marie, Michigan, USA
Distance from station: N 56mi, 89km
Updated: 02/22/2019 7:55pm
Partly cloudy
Partly cloudy
 Wind from WSW
Wind: WSW 3 mph , 6 km/h
Temperature: 30°F , -1°C
Dew Point: 19°F , -7°C
Humidity: 64%
Barometer: 30.39 inHg , 1029.1 hPa
Clouds: Partly cloudy
Visibility: 10 miles , 16 km
Cloud details: Partly cloudy 2700 ft
2019/02/23 00:55 KANJ 230055Z AUTO 24003KT 10SM SCT027 M01/M07 A3039 RMK AO2 SLP299 T10111067
 
KAPN - Alpena, Michigan, USA
Distance from station: SE 56mi, 89km
Updated: 02/22/2019 7:54pm
Clear
Clear
 Wind from SE
Wind: SE 8 mph , 13 km/h
Temperature: 25°F , -4°C
Wind Chill: 16°F , -9°C
Dew Point: 19°F , -7°C
Humidity: 80%
Barometer: 30.41 inHg , 1029.8 hPa
Clouds: Clear
Visibility: 10 miles , 16 km
2019/02/23 00:54 KAPN 230054Z AUTO 14007KT 10SM CLR M04/M07 A3041 RMK AO2 SLP311 T10391072
CYAM - Sault Ste Marie, Ontario, Canada
Distance from station: N 56mi, 90km
Updated: 02/22/2019 7:00pm
Mostly cloudy
Mostly cloudy
 Wind from SW
Wind: SW 5 mph , 7 km/h
Temperature: 30°F , -1°C
Wind Chill: 25°F , -4°C
Dew Point: 21°F , -6°C
Humidity: 69%
Barometer: 30.39 inHg , 1029.1 hPa
Clouds: Mostly cloudy
Visibility: 20 miles , 32 km
Cloud details: Mostly cloudy 2900 ft
2019/02/23 00:00 CYAM 230000Z 22004KT 20SM BKN029 M01/M06 A3039 RMK SC7 SLP305
 
KSJX - Beaver Island, Michigan, USA
Distance from station: W 60mi, 96km
Updated: 02/22/2019 7:55pm
Mist, Clear
Mist, Clear
 Wind from calm
Wind: Calm
Temperature: 21°F , -6°C
Dew Point: 19°F , -7°C
Humidity: 93%
Barometer: 30.40 inHg , 1029.5 hPa
Summary: Mist
Clouds: Clear
Visibility: 4 miles , 6 km
2019/02/23 00:55 KSJX 230055Z AUTO 00000KT 4SM BR CLR M06/M07 A3040 RMK AO2 T10621069
KACB - Bellaire, Michigan, USA
Distance from station: SW 63mi, 102km
Updated: 02/22/2019 7:56pm
Clear
Clear
 Wind from calm
Wind: Calm
Temperature: 25°F , -4°C
Dew Point: 21°F , -6°C
Humidity: 86%
Barometer: 30.40 inHg , 1029.5 hPa
Clouds: Clear
Visibility: 10 miles , 16 km
2019/02/23 00:56 KACB 230056Z AUTO 00000KT 10SM CLR M04/M06 A3040 RMK AO2 T10401063
 
CWNL - Great Duck Island, Ontario, Canada
Distance from station: E 66mi, 106km
Updated: 02/22/2019 7:00pm

 Wind from S
Wind: S 8 mph , 13 km/h
Temperature: 30°F , -1°C
Wind Chill: 22°F , -6°C
Dew Point: 23°F , -5°C
Humidity: 75%
2019/02/23 00:00 CWNL 230000Z AUTO 18007KT M01/M05 RMK AO1 SLP310 T10081052 58005
KERY - Newberry, Michigan, USA
Distance from station: NW 69mi, 112km
Updated: 02/22/2019 7:55pm
Clear
Clear
 
Temperature: 23°F , -5°C
Dew Point: 21°F , -6°C
Humidity: 93%
Barometer: 30.36 inHg , 1028.1 hPa
Clouds: Clear
Visibility: 10 miles , 16 km
2019/02/23 00:55 KERY 230055Z AUTO 10SM CLR M05/M06 A3036 RMK AO2 T10481060
 
KGOV - Grayling Af, Michigan, USA
Distance from station: SSW 70mi, 113km
Updated: 02/22/2019 6:58pm
Clear
Clear
 Wind from calm
Wind: Calm
Temperature: 21°F , -6°C
Dew Point: 18°F , -8°C
Humidity: 86%
Barometer: 30.36 inHg , 1028.1 hPa
Clouds: Clear
Visibility: 10 miles , 16 km
2019/02/22 23:58 KGOV 222358Z AUTO 00000KT 10SM CLR M06/M08 A3036 RMK AO2 SLP306 T10561083 10018 21058 $